Terminal Aerodrome Forecast
Issued by NWS Des Moines, IA

Home | Current Version | Previous Version | Text Only | Print | Product List | Glossary On
Versions: 1 2 3 4 5 6 7 8 9 10 11 12 13 14 15 16 17 18 19 20 21 22 23 24 25 26 27 28 29 30 31 32 33 34 35
000
FTUS43 KDMX 061734
TAFDSM
TAF
KDSM 061734Z 0618/0718 25008KT P6SM SCT010 BKN050
      TEMPO 0618/0620 3SM -TSRA BR BKN010CB
     FM062100 30013KT P6SM VCSH SCT010 BKN035
     FM070000 34012KT P6SM BKN040
     FM070800 36009KT P6SM FEW250=

USA.gov is the U.S. government's official web portal to all federal, state and local government web resources and services.